Maupin, Oregon
Current Conditions -  °F | °C
As of 2:53 PM on Friday 19 Dec 2014 (Local Time) from KDLS Reporting Station
Clear Clear  
Wind Chill: 50°   Ceiling: Unl
Heat Index: 50°   Visibility: 10mi
Dew Point: 41°   Wind: 5mph
Humidity: 71%   Direction: 300°WNW
Pressure: 30.01"   Gusts: NA
Location:  45.18°N, 121.08°W
Report Text: KDLS 192253Z AUTO 30004KT 10SM CLR 10/05 A3001 RMK AO2 SLP163 T01000050
Loading
Personal Weather Stations






























Interactive Weather Map New forecast layout! Learn more

10-Day Weather Forecast

Advertisements
Track Severe Weather on mobile